Time;durP1;ratioP1;P1;durP2;ratioP2;P2;SDS_P1;SDS_P2;PMS_P1;PMS_P2;Temp;Humidity;BMP_temperature;BMP_pressure;BME280_temperature;BME280_humidity;BME280_pressure;Samples;Min_cycle;Max_cycle;Signal;HPM_P1;HPM_P2
2022/04/08 00:02:09;;;;;;;8.70;1.52;;;;;;;;;;4997962;28;20030;-62
2022/04/08 00:04:35;;;;;;;7.63;1.60;;;;;;;;;;5004945;28;20036;-62
2022/04/08 00:07:01;;;;;;;7.18;1.83;;;;;;;;;;5003979;28;20371;-62
2022/04/08 00:09:27;;;;;;;5.75;1.20;;;;;;;;;;5002813;28;20026;-61
2022/04/08 00:11:55;;;;;;;4.18;1.10;;;;;;;;;;5002242;28;20042;-62
2022/04/08 00:14:21;;;;;;;7.28;1.77;;;;;;;;;;4999734;28;20377;-62
2022/04/08 00:16:47;;;;;;;7.13;1.25;;;;;;;;;;5002814;28;20569;-62
2022/04/08 00:19:13;;;;;;;8.07;1.38;;;;;;;;;;5004450;28;20268;-62
2022/04/08 00:21:39;;;;;;;6.22;1.33;;;;;;;;;;4999772;28;20477;-61
2022/04/08 00:24:05;;;;;;;8.23;1.48;;;;;;;;;;5002271;28;20022;-62
2022/04/08 00:26:31;;;;;;;5.78;1.45;;;;;;;;;;5002505;28;20026;-62
2022/04/08 00:28:57;;;;;;;7.65;1.77;;;;;;;;;;5003404;28;20069;-62
2022/04/08 00:31:23;;;;;;;6.30;1.60;;;;;;;;;;5001431;28;20056;-61
2022/04/08 00:33:49;;;;;;;10.13;1.77;;;;;;;;;;5000513;28;20037;-62
2022/04/08 00:36:15;;;;;;;11.48;2.10;;;;;;;;;;5001432;28;20444;-62
2022/04/08 00:38:41;;;;;;;10.00;1.70;;;;;;;;;;4989642;28;20061;-62
2022/04/08 00:41:07;;;;;;;8.90;2.00;;;;;;;;;;5004614;28;20026;-62
2022/04/08 00:43:34;;;;;;;7.18;1.55;;;;;;;;;;5004856;28;20459;-62
2022/04/08 00:46:00;;;;;;;10.90;2.03;;;;;;;;;;5002498;28;20034;-62
2022/04/08 00:48:26;;;;;;;8.73;1.88;;;;;;;;;;5004085;28;20034;-62
2022/04/08 00:50:52;;;;;;;6.60;1.85;;;;;;;;;;5004002;28;20026;-62
2022/04/08 00:53:18;;;;;;;10.65;2.40;;;;;;;;;;5005348;28;20113;-62
2022/04/08 00:55:45;;;;;;;11.35;2.25;;;;;;;;;;5004861;28;20121;-62
2022/04/08 00:58:12;;;;;;;12.18;2.53;;;;;;;;;;4984909;28;20522;-61
2022/04/08 01:00:38;;;;;;;9.82;2.30;;;;;;;;;;5002425;28;20425;-61
2022/04/08 01:03:05;;;;;;;11.77;2.08;;;;;;;;;;5003338;28;20053;-62
2022/04/08 01:05:32;;;;;;;12.32;2.63;;;;;;;;;;5001503;28;20033;-62
2022/04/08 01:07:58;;;;;;;9.40;2.20;;;;;;;;;;5001831;28;20552;-62
2022/04/08 01:10:24;;;;;;;15.70;2.92;;;;;;;;;;4984021;28;20037;-62
2022/04/08 01:12:50;;;;;;;12.50;2.33;;;;;;;;;;5004616;28;20021;-62
2022/04/08 01:15:17;;;;;;;9.05;2.33;;;;;;;;;;5003980;28;20536;-62
2022/04/08 01:17:43;;;;;;;11.77;2.50;;;;;;;;;;5004914;28;20102;-62
2022/04/08 01:20:09;;;;;;;14.63;2.65;;;;;;;;;;5002701;28;20101;-62
2022/04/08 01:22:36;;;;;;;12.40;2.78;;;;;;;;;;5002344;28;20446;-62
2022/04/08 01:25:05;;;;;;;14.25;2.53;;;;;;;;;;5001089;28;20034;-62
2022/04/08 01:27:31;;;;;;;11.77;2.92;;;;;;;;;;4999502;28;20105;-62
2022/04/08 01:29:57;;;;;;;12.27;2.03;;;;;;;;;;5003797;28;20018;-62
2022/04/08 01:32:23;;;;;;;9.90;2.38;;;;;;;;;;5006887;28;20034;-62
2022/04/08 01:34:50;;;;;;;11.27;2.20;;;;;;;;;;5007817;28;20022;-62
2022/04/08 01:37:16;;;;;;;6.53;2.13;;;;;;;;;;4991430;28;20014;-62
2022/04/08 01:39:42;;;;;;;11.68;2.42;;;;;;;;;;5001106;28;20045;-62
2022/04/08 01:42:09;;;;;;;11.82;2.50;;;;;;;;;;5001801;28;20507;-62
2022/04/08 01:44:38;;;;;;;12.77;2.30;;;;;;;;;;5006784;28;20034;-61
2022/04/08 01:47:04;;;;;;;13.20;2.70;;;;;;;;;;5004782;28;20038;-62
2022/04/08 01:49:30;;;;;;;16.50;2.78;;;;;;;;;;5002997;28;20030;-62
2022/04/08 01:51:56;;;;;;;13.52;2.53;;;;;;;;;;5007219;28;20398;-62
2022/04/08 01:54:22;;;;;;;10.80;2.15;;;;;;;;;;5005490;28;20014;-61
2022/04/08 01:56:48;;;;;;;12.65;2.20;;;;;;;;;;5005203;28;20469;-62
2022/04/08 01:59:15;;;;;;;10.32;2.33;;;;;;;;;;5002880;28;20117;-62
2022/04/08 02:01:41;;;;;;;9.88;2.25;;;;;;;;;;5004365;28;20062;-62
2022/04/08 02:04:07;;;;;;;10.23;2.40;;;;;;;;;;4987004;28;20464;-62
2022/04/08 02:06:34;;;;;;;12.77;2.78;;;;;;;;;;5005216;28;20524;-62
2022/04/08 02:09:01;;;;;;;10.52;2.13;;;;;;;;;;5002003;28;20559;-62
2022/04/08 02:11:27;;;;;;;11.63;2.13;;;;;;;;;;5006057;28;20018;-62
2022/04/08 02:13:53;;;;;;;11.82;2.58;;;;;;;;;;5004191;28;20073;-62
2022/04/08 02:16:19;;;;;;;11.35;2.25;;;;;;;;;;5007245;28;20018;-61
2022/04/08 02:18:45;;;;;;;11.32;2.47;;;;;;;;;;5004234;28;20383;-61
2022/04/08 02:21:11;;;;;;;12.93;2.33;;;;;;;;;;5007071;28;20041;-62
2022/04/08 02:23:38;;;;;;;12.80;2.65;;;;;;;;;;5006349;28;20438;-62
2022/04/08 02:26:05;;;;;;;14.23;2.47;;;;;;;;;;5005009;28;20444;-62
2022/04/08 02:28:33;;;;;;;12.55;2.33;;;;;;;;;;5005880;28;20041;-62
2022/04/08 02:30:59;;;;;;;15.80;2.92;;;;;;;;;;5008242;28;20708;-62
2022/04/08 02:33:25;;;;;;;15.80;3.28;;;;;;;;;;5007335;28;20076;-62
2022/04/08 02:35:52;;;;;;;15.80;2.58;;;;;;;;;;5006277;28;20114;-62
2022/04/08 02:38:18;;;;;;;13.05;3.22;;;;;;;;;;5000918;28;20057;-62
2022/04/08 02:40:44;;;;;;;15.73;3.05;;;;;;;;;;5001582;28;20073;-62
2022/04/08 02:43:10;;;;;;;15.40;2.63;;;;;;;;;;5006994;28;20622;-62
2022/04/08 02:45:36;;;;;;;17.85;3.08;;;;;;;;;;5002010;28;20018;-62
2022/04/08 02:48:02;;;;;;;16.73;3.10;;;;;;;;;;5004262;28;20025;-62
2022/04/08 02:50:28;;;;;;;13.55;2.55;;;;;;;;;;5004996;28;20429;-62
2022/04/08 02:52:54;;;;;;;16.92;3.25;;;;;;;;;;5006424;28;20045;-62
2022/04/08 02:55:20;;;;;;;12.05;2.78;;;;;;;;;;5006029;28;20045;-62
2022/04/08 02:57:47;;;;;;;12.95;2.60;;;;;;;;;;5006801;28;20018;-62
2022/04/08 03:00:17;;;;;;;11.55;2.85;;;;;;;;;;5002715;28;20030;-62
2022/04/08 03:02:47;;;;;;;13.07;2.60;;;;;;;;;;5005373;28;20121;-62
2022/04/08 03:05:13;;;;;;;18.00;2.80;;;;;;;;;;5007532;28;20528;-61
2022/04/08 03:07:39;;;;;;;14.45;2.78;;;;;;;;;;5005893;28;20034;-62
2022/04/08 03:10:05;;;;;;;12.00;2.45;;;;;;;;;;5005633;28;20041;-62
2022/04/08 03:12:32;;;;;;;10.65;2.67;;;;;;;;;;5004578;28;20026;-62
2022/04/08 03:14:58;;;;;;;14.35;3.10;;;;;;;;;;5002656;28;20041;-61
2022/04/08 03:17:24;;;;;;;11.10;2.03;;;;;;;;;;5007981;28;20026;-62
2022/04/08 03:19:50;;;;;;;13.32;2.70;;;;;;;;;;5001165;28;20040;-62
2022/04/08 03:22:20;;;;;;;10.57;2.75;;;;;;;;;;5000068;28;20034;-62
2022/04/08 03:24:47;;;;;;;15.18;2.70;;;;;;;;;;5003223;28;20022;-62
2022/04/08 03:27:13;;;;;;;12.77;3.05;;;;;;;;;;4999886;28;20049;-62
2022/04/08 03:29:39;;;;;;;10.63;2.22;;;;;;;;;;5005514;28;20049;-62
2022/04/08 03:32:05;;;;;;;9.15;2.15;;;;;;;;;;5000709;28;20029;-62
2022/04/08 03:34:32;;;;;;;15.95;2.72;;;;;;;;;;5006123;28;20036;-61
2022/04/08 03:36:58;;;;;;;15.15;2.45;;;;;;;;;;5002002;28;20058;-62
2022/04/08 03:39:24;;;;;;;11.95;2.65;;;;;;;;;;5004854;28;20022;-62
2022/04/08 03:41:50;;;;;;;14.93;3.70;;;;;;;;;;4999153;28;20041;-62
2022/04/08 03:44:16;;;;;;;13.88;2.60;;;;;;;;;;4988063;28;20092;-62
2022/04/08 03:46:43;;;;;;;12.25;2.83;;;;;;;;;;5000448;28;20166;-62
2022/04/08 03:49:14;;;;;;;16.67;3.10;;;;;;;;;;5006154;28;20073;-62
2022/04/08 03:51:46;;;;;;;13.63;2.75;;;;;;;;;;5006904;28;20466;-62
2022/04/08 03:54:13;;;;;;;14.55;3.30;;;;;;;;;;5001118;28;20025;-62
2022/04/08 03:56:42;;;;;;;15.05;2.75;;;;;;;;;;5002351;28;20456;-62
2022/04/08 03:59:09;;;;;;;11.77;2.60;;;;;;;;;;5002436;28;20033;-62
2022/04/08 04:01:35;;;;;;;11.15;2.38;;;;;;;;;;5005768;28;20563;-62
2022/04/08 04:04:01;;;;;;;17.42;3.00;;;;;;;;;;5005569;28;20096;-62
2022/04/08 04:06:27;;;;;;;11.95;2.80;;;;;;;;;;5000097;28;20038;-62
2022/04/08 04:08:53;;;;;;;11.23;2.47;;;;;;;;;;4998118;28;20033;-62
2022/04/08 04:11:19;;;;;;;14.23;2.85;;;;;;;;;;4999529;28;20548;-62
2022/04/08 04:13:45;;;;;;;14.20;2.92;;;;;;;;;;5005202;28;20397;-62
2022/04/08 04:16:11;;;;;;;11.30;2.95;;;;;;;;;;5000942;28;20038;-62
2022/04/08 04:18:37;;;;;;;15.00;3.28;;;;;;;;;;5005550;28;20109;-62
2022/04/08 04:21:03;;;;;;;12.90;2.70;;;;;;;;;;5005316;28;20034;-61
2022/04/08 04:23:31;;;;;;;12.65;3.33;;;;;;;;;;4988341;28;20091;-62
2022/04/08 04:25:57;;;;;;;14.40;3.15;;;;;;;;;;5002333;28;20030;-62
2022/04/08 04:28:23;;;;;;;10.30;3.47;;;;;;;;;;5003471;28;20030;-62
2022/04/08 04:30:53;;;;;;;11.85;3.90;;;;;;;;;;4983387;28;20058;-62
2022/04/08 04:33:18;;;;;;;13.02;4.35;;;;;;;;;;5005927;28;20029;-62
2022/04/08 04:35:45;;;;;;;18.70;4.25;;;;;;;;;;5004584;28;20038;-62
2022/04/08 04:38:11;;;;;;;10.25;3.90;;;;;;;;;;5003104;28;20485;-61
2022/04/08 04:40:37;;;;;;;16.88;4.57;;;;;;;;;;5004434;28;20072;-62
2022/04/08 04:43:03;;;;;;;11.85;4.38;;;;;;;;;;5002982;28;20026;-62
2022/04/08 04:45:29;;;;;;;14.63;4.50;;;;;;;;;;5004657;28;20493;-62
2022/04/08 04:47:55;;;;;;;13.95;4.93;;;;;;;;;;5004743;28;20068;-62
2022/04/08 04:50:21;;;;;;;11.82;4.68;;;;;;;;;;5004817;28;20054;-62
2022/04/08 04:52:48;;;;;;;11.63;4.97;;;;;;;;;;5005621;28;20493;-62
2022/04/08 04:55:14;;;;;;;15.23;5.03;;;;;;;;;;5005419;28;20053;-62
2022/04/08 04:57:40;;;;;;;12.63;4.72;;;;;;;;;;5003957;28;20509;-62
2022/04/08 05:00:09;;;;;;;11.43;4.55;;;;;;;;;;5004236;28;20062;-61
2022/04/08 05:02:35;;;;;;;13.35;5.47;;;;;;;;;;5004519;28;20117;-62
2022/04/08 05:05:01;;;;;;;11.93;4.65;;;;;;;;;;4998147;28;20018;-62
2022/04/08 05:07:27;;;;;;;13.07;5.10;;;;;;;;;;5005236;28;20092;-62
2022/04/08 05:09:53;;;;;;;14.10;5.25;;;;;;;;;;4991064;28;20088;-62
2022/04/08 05:12:19;;;;;;;13.52;5.05;;;;;;;;;;5005816;28;20030;-62
2022/04/08 05:14:45;;;;;;;14.63;5.20;;;;;;;;;;5007213;28;20042;-62
2022/04/08 05:17:11;;;;;;;14.45;5.10;;;;;;;;;;5005896;28;20030;-62
2022/04/08 05:19:37;;;;;;;11.90;5.47;;;;;;;;;;5002636;28;20030;-62
2022/04/08 05:22:03;;;;;;;11.15;5.07;;;;;;;;;;5008886;28;20038;-61
2022/04/08 05:24:29;;;;;;;13.98;5.00;;;;;;;;;;5007857;28;20022;-62
2022/04/08 05:26:55;;;;;;;16.90;6.28;;;;;;;;;;5006915;28;20469;-62
2022/04/08 05:29:21;;;;;;;13.43;5.82;;;;;;;;;;5008265;28;20453;-62
2022/04/08 05:31:47;;;;;;;14.55;5.45;;;;;;;;;;4991735;28;20088;-61
2022/04/08 05:34:13;;;;;;;15.10;5.75;;;;;;;;;;5001306;28;20089;-62
2022/04/08 05:36:40;;;;;;;15.93;6.28;;;;;;;;;;5006683;28;20298;-62
2022/04/08 05:39:06;;;;;;;14.30;5.63;;;;;;;;;;5001928;28;20049;-62
2022/04/08 05:41:32;;;;;;;13.65;5.97;;;;;;;;;;5007863;28;20041;-62
2022/04/08 05:43:57;;;;;;;16.67;7.15;;;;;;;;;;4986349;28;20057;-62
2022/04/08 05:46:23;;;;;;;16.35;7.65;;;;;;;;;;5006026;28;20117;-62
2022/04/08 05:48:49;;;;;;;14.40;7.97;;;;;;;;;;5004794;28;20497;-62
2022/04/08 05:51:15;;;;;;;17.40;8.55;;;;;;;;;;5007842;28;20452;-62
2022/04/08 05:53:41;;;;;;;18.02;8.73;;;;;;;;;;4991168;28;20026;-62
2022/04/08 05:56:07;;;;;;;18.00;8.60;;;;;;;;;;5002608;28;20042;-62
2022/04/08 05:58:33;;;;;;;12.27;8.00;;;;;;;;;;5003298;28;20025;-62
2022/04/08 06:01:00;;;;;;;14.50;9.32;;;;;;;;;;5002106;28;20314;-62
2022/04/08 06:03:26;;;;;;;20.05;10.10;;;;;;;;;;5008493;28;20022;-62
2022/04/08 06:05:53;;;;;;;17.58;9.63;;;;;;;;;;5006380;28;20324;-62
2022/04/08 06:08:19;;;;;;;17.27;9.85;;;;;;;;;;5002332;28;20114;-62
2022/04/08 06:10:45;;;;;;;23.40;10.23;;;;;;;;;;5003718;28;20105;-63
2022/04/08 06:13:11;;;;;;;20.30;10.80;;;;;;;;;;5004588;28;20136;-63
2022/04/08 06:15:37;;;;;;;16.02;9.90;;;;;;;;;;5006416;28;20034;-64
2022/04/08 06:18:03;;;;;;;20.40;10.35;;;;;;;;;;5006151;28;20076;-64
2022/04/08 06:20:29;;;;;;;19.88;10.50;;;;;;;;;;5004970;28;20388;-64
2022/04/08 06:22:55;;;;;;;18.55;11.00;;;;;;;;;;5004604;28;20034;-63
2022/04/08 06:25:22;;;;;;;16.77;10.63;;;;;;;;;;5006227;28;20040;-63
2022/04/08 06:27:58;;;;;;;16.83;10.23;;;;;;;;;;5004547;28;20112;-63
2022/04/08 06:30:24;;;;;;;26.42;11.27;;;;;;;;;;4987744;28;20549;-64
2022/04/08 06:32:50;;;;;;;18.70;10.55;;;;;;;;;;5006778;28;20022;-64
2022/04/08 06:35:16;;;;;;;18.67;11.00;;;;;;;;;;4990143;28;20088;-64
2022/04/08 06:37:42;;;;;;;17.42;9.93;;;;;;;;;;5006061;28;20029;-64
2022/04/08 06:40:09;;;;;;;16.95;9.80;;;;;;;;;;4999643;28;20038;-64
2022/04/08 06:42:35;;;;;;;17.77;9.52;;;;;;;;;;5002196;28;20034;-64
2022/04/08 06:45:02;;;;;;;13.95;9.13;;;;;;;;;;5004644;28;20037;-64
2022/04/08 06:47:28;;;;;;;16.83;9.02;;;;;;;;;;5005604;28;20061;-64
2022/04/08 06:49:54;;;;;;;17.38;9.85;;;;;;;;;;4988390;28;20069;-64
2022/04/08 06:52:20;;;;;;;16.23;9.02;;;;;;;;;;5006560;28;20033;-64
2022/04/08 06:54:46;;;;;;;12.63;8.40;;;;;;;;;;5006583;28;20034;-64
2022/04/08 06:57:12;;;;;;;14.00;8.52;;;;;;;;;;5004461;28;20063;-64
2022/04/08 06:59:38;;;;;;;15.02;8.73;;;;;;;;;;5004228;28;20405;-64
2022/04/08 07:02:04;;;;;;;13.95;8.93;;;;;;;;;;5002886;28;20061;-64
2022/04/08 07:04:30;;;;;;;15.82;9.20;;;;;;;;;;5006121;28;20028;-64
2022/04/08 07:06:56;;;;;;;13.60;9.07;;;;;;;;;;4999260;28;20033;-64
2022/04/08 07:09:22;;;;;;;19.63;8.80;;;;;;;;;;4989460;28;20033;-64
2022/04/08 07:11:48;;;;;;;18.08;9.65;;;;;;;;;;5002558;28;20397;-63
2022/04/08 07:14:14;;;;;;;17.38;8.88;;;;;;;;;;5002776;28;20541;-64
2022/04/08 07:16:43;;;;;;;14.05;8.85;;;;;;;;;;5002375;28;20053;-64
2022/04/08 07:19:10;;;;;;;14.32;8.23;;;;;;;;;;5004894;28;20109;-64
2022/04/08 07:21:36;;;;;;;17.70;7.93;;;;;;;;;;4987749;28;20021;-64
2022/04/08 07:24:02;;;;;;;12.38;7.15;;;;;;;;;;4989162;28;20042;-64
2022/04/08 07:26:28;;;;;;;12.90;6.75;;;;;;;;;;5005861;28;20749;-64
2022/04/08 07:28:55;;;;;;;13.93;7.60;;;;;;;;;;4987475;28;20105;-64
2022/04/08 07:31:21;;;;;;;17.95;7.00;;;;;;;;;;5002278;28;20052;-64
2022/04/08 07:33:47;;;;;;;13.40;7.18;;;;;;;;;;4985918;28;20018;-64
2022/04/08 07:36:13;;;;;;;12.40;6.47;;;;;;;;;;5004159;28;20026;-64
2022/04/08 07:38:39;;;;;;;14.05;5.78;;;;;;;;;;5004122;28;20454;-64
2022/04/08 07:41:05;;;;;;;13.70;6.43;;;;;;;;;;5002395;28;20591;-64
2022/04/08 07:43:31;;;;;;;12.77;6.63;;;;;;;;;;5004763;28;20434;-64
2022/04/08 07:45:58;;;;;;;13.18;6.47;;;;;;;;;;5003872;28;20060;-65
2022/04/08 07:48:24;;;;;;;8.25;4.95;;;;;;;;;;5006348;28;20021;-64
2022/04/08 07:50:50;;;;;;;8.75;5.32;;;;;;;;;;5000990;28;20049;-64
2022/04/08 07:53:16;;;;;;;8.65;4.70;;;;;;;;;;5003163;28;20033;-64
2022/04/08 07:55:42;;;;;;;9.38;5.07;;;;;;;;;;5001988;28;20061;-64
2022/04/08 07:58:08;;;;;;;11.55;5.10;;;;;;;;;;4994415;28;20532;-64
2022/04/08 08:00:34;;;;;;;11.55;5.55;;;;;;;;;;4983458;28;20065;-64
2022/04/08 08:03:00;;;;;;;8.70;4.88;;;;;;;;;;5002445;28;20389;-64
2022/04/08 08:05:26;;;;;;;11.73;4.93;;;;;;;;;;4986564;28;20493;-64
2022/04/08 08:07:57;;;;;;;8.95;4.30;;;;;;;;;;5001555;28;20022;-64
2022/04/08 08:10:28;;;;;;;7.93;4.03;;;;;;;;;;4984805;28;20025;-64
2022/04/08 08:12:54;;;;;;;6.07;3.33;;;;;;;;;;4995639;28;20199;-64
2022/04/08 08:15:21;;;;;;;13.25;3.70;;;;;;;;;;4986038;28;20018;-64
2022/04/08 08:17:47;;;;;;;7.72;3.78;;;;;;;;;;5000442;28;20034;-64
2022/04/08 08:20:15;;;;;;;10.25;3.53;;;8.30;99.90;;;;;;4987081;28;20026;-64
2022/04/08 08:22:41;;;;;;;11.25;4.00;;;8.50;99.90;;;;;;4999985;28;20030;-64
2022/04/08 08:25:08;;;;;;;10.95;3.80;;;8.40;99.90;;;;;;5002694;28;20178;-64
2022/04/08 08:27:47;;;;;;;6.45;3.58;;;8.50;99.90;;;;;;4983491;28;20681;-64
2022/04/08 08:30:16;;;;;;;8.02;3.70;;;8.80;99.90;;;;;;5002239;28;20470;-64
2022/04/08 08:32:47;;;;;;;7.95;3.30;;;8.70;99.90;;;;;;5001267;28;20014;-62
2022/04/08 08:35:14;;;;;;;7.25;4.13;;;8.70;99.90;;;;;;5004833;28;20029;-64
2022/04/08 08:37:39;;;;;;;10.35;3.50;;;8.70;99.90;;;;;;5003093;28;20548;-64
2022/04/08 08:40:07;;;;;;;7.03;3.40;;;8.70;99.90;;;;;;5003802;28;20057;-64
2022/04/08 08:42:35;;;;;;;8.85;3.92;;;8.60;99.90;;;;;;5003119;28;20140;-64
2022/04/08 08:45:01;;;;;;;8.00;3.33;;;8.50;99.90;;;;;;4984729;28;20030;-64
2022/04/08 08:47:29;;;;;;;12.43;3.28;;;8.60;99.90;;;;;;5001528;28;20036;-64
2022/04/08 08:49:56;;;;;;;7.72;3.47;;;8.80;99.90;;;;;;4998714;28;20386;-64
2022/04/08 08:52:22;;;;;;;7.50;3.28;;;8.80;99.90;;;;;;4988459;28;20014;-64
2022/04/08 08:54:47;;;;;;;8.80;3.63;;;8.90;99.90;;;;;;5004823;28;20079;-64
2022/04/08 08:57:17;;;;;;;10.43;3.00;;;9.00;99.90;;;;;;5001554;28;20022;-64
2022/04/08 08:59:44;;;;;;;8.55;2.90;;;8.90;99.90;;;;;;5000939;28;20033;-64
2022/04/08 09:02:21;;;;;;;9.57;3.47;;;8.60;99.90;;;;;;5004003;28;20405;-64
2022/04/08 09:04:49;;;;;;;7.93;3.30;;;8.70;99.90;;;;;;5003373;28;20388;-64
2022/04/08 09:07:28;;;;;;;7.95;2.97;;;8.70;99.90;;;;;;5002003;28;20623;-64
2022/04/08 09:09:57;;;;;;;6.13;2.60;;;9.00;99.90;;;;;;4998871;28;20034;-64
2022/04/08 09:12:24;;;;;;;7.07;3.22;;;8.80;99.90;;;;;;4999138;28;20029;-64
2022/04/08 09:14:51;;;;;;;7.53;3.30;;;8.80;99.90;;;;;;5003093;28;20026;-64
2022/04/08 09:17:19;;;;;;;6.68;3.08;;;9.10;99.90;;;;;;5000630;28;20111;-64
2022/04/08 09:19:48;;;;;;;8.43;2.97;;;9.20;99.90;;;;;;5004916;28;20153;-64
2022/04/08 09:22:14;;;;;;;5.40;2.70;;;9.20;99.90;;;;;;4996475;28;20092;-64
2022/04/08 09:24:40;;;;;;;7.47;2.70;;;9.30;99.90;;;;;;5001437;28;20033;-65
2022/04/08 09:27:06;;;;;;;6.95;3.00;;;9.30;99.90;;;;;;4982805;28;20559;-64
2022/04/08 09:29:33;;;;;;;5.30;2.60;;;9.50;99.90;;;;;;5003388;28;20084;-64
2022/04/08 09:31:59;;;;;;;6.03;2.45;;;9.40;99.90;;;;;;5002399;28;20018;-64
2022/04/08 09:34:25;;;;;;;5.85;2.15;;;9.20;99.90;;;;;;4995709;28;20048;-64
2022/04/08 09:36:50;;;;;;;8.30;2.63;;;9.30;99.90;;;;;;4997880;28;20026;-64
2022/04/08 09:39:16;;;;;;;9.18;2.85;;;9.30;99.90;;;;;;5001592;28;20449;-65
2022/04/08 09:41:53;;;;;;;7.13;2.45;;;9.30;99.90;;;;;;4997225;28;20029;-65
2022/04/08 09:44:26;;;;;;;10.43;2.25;;;9.30;99.90;;;;;;4978651;28;20080;-65
2022/04/08 09:46:52;;;;;;;4.88;2.60;;;9.20;99.90;;;;;;5000127;28;20059;-65
2022/04/08 09:49:18;;;;;;;5.15;2.53;;;9.30;99.90;;;;;;5000905;28;20085;-65
2022/04/08 09:51:49;;;;;;;3.90;1.90;;;9.40;99.90;;;;;;4999006;28;20033;-64
2022/04/08 09:54:20;;;;;;;8.98;2.70;;;9.30;99.90;;;;;;4988856;28;20465;-65
2022/04/08 09:56:46;;;;;;;9.90;2.33;;;9.50;99.90;;;;;;5006767;28;20117;-64
2022/04/08 09:59:13;;;;;;;7.30;2.30;;;9.70;99.90;;;;;;5005538;28;20113;-64
2022/04/08 10:01:42;;;;;;;4.80;1.80;;;9.60;99.90;;;;;;4989099;28;20029;-64
2022/04/08 10:04:09;;;;;;;7.20;1.98;;;9.80;99.90;;;;;;5004743;28;20074;-64
2022/04/08 10:06:39;;;;;;;7.82;2.17;;;9.70;99.90;;;;;;5006327;28;20018;-64
2022/04/08 10:09:07;;;;;;;7.85;2.13;;;9.60;99.90;;;;;;5006120;28;20140;-64
2022/04/08 10:11:57;;;;;;;5.20;2.25;;;9.70;99.90;;;;;;5004445;28;20030;-65
2022/04/08 10:14:34;;;;;;;8.10;2.67;;;9.80;99.90;;;;;;5005399;28;20026;-65
2022/04/08 10:17:00;;;;;;;5.60;2.60;;;9.70;99.90;;;;;;4985337;28;20575;-64
2022/04/08 10:19:28;;;;;;;7.75;2.83;;;9.80;99.90;;;;;;5002181;28;20045;-65
2022/04/08 10:21:55;;;;;;;8.32;2.78;;;9.70;99.90;;;;;;5002948;28;20033;-65
2022/04/08 10:24:23;;;;;;;3.22;2.40;;;9.60;99.90;;;;;;5003158;28;20064;-65
2022/04/08 10:27:03;;;;;;;5.50;2.05;;;9.80;99.90;;;;;;5003089;28;20037;-65
2022/04/08 10:29:32;;;;;;;5.25;2.28;;;9.60;99.90;;;;;;4985575;28;20072;-65
2022/04/08 10:32:00;;;;;;;4.97;2.70;;;9.60;99.90;;;;;;5002122;28;20041;-65
2022/04/08 10:34:26;;;;;;;5.55;2.40;;;9.60;99.90;;;;;;5001364;28;20645;-65
2022/04/08 10:36:52;;;;;;;6.25;2.25;;;9.70;99.90;;;;;;4999136;28;20391;-65
2022/04/08 10:39:23;;;;;;;7.00;2.20;;;9.80;99.90;;;;;;5002774;28;20036;-65
2022/04/08 10:41:51;;;;;;;7.15;2.80;;;9.80;99.90;;;;;;5001015;28;20034;-65
2022/04/08 10:44:30;;;;;;;4.45;2.40;;;9.70;99.90;;;;;;5005207;28;20385;-65
2022/04/08 10:46:58;;;;;;;4.55;2.40;;;9.70;99.90;;;;;;5003670;28;20041;-65
2022/04/08 10:49:24;;;;;;;9.57;2.67;;;9.60;99.90;;;;;;4987909;28;20034;-65
2022/04/08 10:51:50;;;;;;;9.02;2.47;;;9.70;99.90;;;;;;5003214;28;20441;-64
2022/04/08 10:54:17;;;;;;;4.05;2.33;;;9.80;99.90;;;;;;5003701;28;20034;-65
2022/04/08 10:56:43;;;;;;;6.93;3.10;;;9.80;99.90;;;;;;5004867;28;20073;-65
2022/04/08 10:59:09;;;;;;;6.68;3.45;;;9.70;99.90;;;;;;5001908;28;20061;-66
2022/04/08 11:01:48;;;;;;;6.32;3.67;;;9.60;99.90;;;;;;5003778;28;20041;-65
2022/04/08 11:04:18;;;;;;;5.72;3.55;;;9.80;99.90;;;;;;5002956;28;20026;-66
2022/04/08 11:06:45;;;;;;;6.78;3.50;;;9.80;99.90;;;;;;4999135;28;20061;-66
2022/04/08 11:09:12;;;;;;;10.10;3.95;;;9.70;99.90;;;;;;5004102;28;20034;-66
2022/04/08 11:11:42;;;;;;;7.65;4.35;;;9.80;99.90;;;;;;4984620;28;20092;-66
2022/04/08 11:14:09;;;;;;;5.65;3.47;;;9.80;99.90;;;;;;4987505;28;20084;-66
2022/04/08 11:16:39;;;;;;;4.90;3.28;;;9.70;99.90;;;;;;5006366;28;20018;-65
2022/04/08 11:19:06;;;;;;;10.38;4.43;;;9.80;99.90;;;;;;5004964;28;20034;-66
2022/04/08 11:21:35;;;;;;;6.00;3.60;;;9.80;99.90;;;;;;5005686;28;20587;-65
2022/04/08 11:24:09;;;;;;;6.55;3.72;;;9.90;99.90;;;;;;5004028;28;20058;-65
2022/04/08 11:26:46;;;;;;;6.18;3.88;;;10.10;99.90;;;;;;5005026;28;20167;-65
2022/04/08 11:29:15;;;;;;;8.13;3.83;;;10.00;99.90;;;;;;4984342;28;20084;-66
2022/04/08 11:31:41;;;;;;;4.57;3.80;;;10.00;99.90;;;;;;5004479;28;20029;-65
2022/04/08 11:34:07;;;;;;;5.47;4.03;;;10.10;99.90;;;;;;4986127;28;20603;-65
2022/04/08 11:36:37;;;;;;;5.20;3.58;;;10.30;99.90;;;;;;4987438;28;20018;-65
2022/04/08 11:39:06;;;;;;;9.82;4.30;;;10.20;99.90;;;;;;5005474;28;20072;-65
2022/04/08 11:41:32;;;;;;;5.38;4.07;;;10.30;99.90;;;;;;4987734;28;20026;-65
2022/04/08 11:43:58;;;;;;;6.15;3.95;;;10.10;99.90;;;;;;5004265;28;20497;-65
2022/04/08 11:46:24;;;;;;;7.10;4.57;;;10.10;99.90;;;;;;4997934;28;20057;-64
2022/04/08 11:48:49;;;;;;;6.95;3.95;;;9.90;99.90;;;;;;4999206;28;20030;-64
2022/04/08 11:51:22;;;;;;;6.00;3.30;;;9.90;99.90;;;;;;5002562;28;20048;-64
2022/04/08 11:53:52;;;;;;;4.03;2.47;;;9.70;99.90;;;;;;5005675;28;20030;-64
2022/04/08 11:56:26;;;;;;;6.32;3.30;;;9.80;99.90;;;;;;4996751;28;20105;-64
2022/04/08 11:58:59;;;;;;;5.45;3.80;;;9.60;99.90;;;;;;5003252;28;20477;-64
2022/04/08 12:01:32;;;;;;;4.85;3.60;;;9.80;99.90;;;;;;5000505;28;20030;-63
2022/04/08 12:04:07;;;;;;;7.65;4.05;;;9.70;99.90;;;;;;5001659;28;20110;-64
2022/04/08 12:06:42;;;;;;;5.65;3.13;;;9.90;99.90;;;;;;5003286;28;20293;-64
2022/04/08 12:09:13;;;;;;;7.10;3.80;;;9.90;99.90;;;;;;4984659;28;20034;-64
2022/04/08 12:11:40;;;;;;;10.77;4.40;;;9.90;99.90;;;;;;4985316;28;20159;-64
2022/04/08 12:14:08;;;;;;;8.25;3.42;;;10.00;99.90;;;;;;5002865;28;20064;-64
2022/04/08 12:16:34;;;;;;;5.38;3.33;;;10.00;99.90;;;;;;5000952;28;20036;-65
2022/04/08 12:19:02;;;;;;;4.72;3.13;;;10.00;99.90;;;;;;5004943;28;20041;-64
2022/04/08 12:21:30;;;;;;;8.73;3.42;;;10.20;99.90;;;;;;5000394;28;20048;-64
2022/04/08 12:23:57;;;;;;;6.38;3.85;;;10.20;99.90;;;;;;5000361;28;20034;-64
2022/04/08 12:26:37;;;;;;;5.80;3.72;;;10.20;99.90;;;;;;5000683;28;20080;-64
2022/04/08 12:29:27;;;;;;;5.40;3.67;;;9.90;99.90;;;;;;5003662;28;20034;-64
2022/04/08 12:32:01;;;;;;;7.85;4.07;;;10.00;99.90;;;;;;5000062;28;20474;-64
2022/04/08 12:34:27;;;;;;;6.88;3.75;;;10.00;99.90;;;;;;5002734;28;20109;-64
2022/04/08 12:36:53;;;;;;;6.03;3.42;;;10.00;99.90;;;;;;5005625;28;20433;-64
2022/04/08 12:39:19;;;;;;;7.75;3.33;;;9.80;99.90;;;;;;5000293;28;20022;-63
2022/04/08 12:41:46;;;;;;;5.72;3.22;;;10.00;99.90;;;;;;4977488;28;20040;-64
2022/04/08 12:44:13;;;;;;;7.35;2.15;;;10.10;99.90;;;;;;4995119;28;20027;-63
2022/04/08 12:46:39;;;;;;;6.18;1.75;;;10.10;99.90;;;;;;4987401;28;20022;-64
2022/04/08 12:49:05;;;;;;;6.47;1.77;;;9.90;99.90;;;;;;5003854;28;20069;-64
2022/04/08 12:51:32;;;;;;;4.55;1.20;;;9.90;99.90;;;;;;5004096;28;20398;-64
2022/04/08 12:53:58;;;;;;;2.95;1.35;;;9.80;99.90;;;;;;5000378;28;20419;-64
2022/04/08 12:56:26;;;;;;;4.95;1.48;;;9.70;99.90;;;;;;5000720;28;20482;-64
2022/04/08 12:58:53;;;;;;;3.92;1.27;;;9.50;99.90;;;;;;4982466;28;20560;-64
2022/04/08 13:01:19;;;;;;;5.50;1.70;;;9.50;99.90;;;;;;5001857;28;20504;-63
2022/04/08 13:03:45;;;;;;;3.85;1.40;;;9.60;99.90;;;;;;5003388;28;20116;-64
2022/04/08 13:06:11;;;;;;;5.07;1.50;;;9.90;99.90;;;;;;5000605;28;20050;-64
2022/04/08 13:08:36;;;;;;;3.83;1.55;;;9.90;99.90;;;;;;5004361;28;20084;-64
2022/04/08 13:11:02;;;;;;;4.88;1.80;;;9.80;99.90;;;;;;5002916;28;20038;-64
2022/04/08 13:13:27;;;;;;;4.90;1.48;;;9.80;99.90;;;;;;5002372;28;20021;-63
2022/04/08 13:15:53;;;;;;;5.07;1.52;;;9.90;99.90;;;;;;5001932;28;20381;-63
2022/04/08 13:18:19;;;;;;;5.05;1.85;;;10.20;99.90;;;;;;5002239;28;20014;-65
2022/04/08 13:20:44;;;;;;;5.65;1.02;;;10.30;99.90;;;;;;4985065;28;20417;-64
2022/04/08 13:23:10;;;;;;;2.78;1.17;;;10.40;99.90;;;;;;4995308;28;20393;-64
2022/04/08 13:25:36;;;;;;;4.65;1.52;;;10.20;99.90;;;;;;4997127;28;20126;-64
2022/04/08 13:28:02;;;;;;;3.03;1.25;;;10.10;99.90;;;;;;4991656;28;20067;-65
2022/04/08 13:30:27;;;;;;;4.55;1.50;;;10.20;99.90;;;;;;5009148;28;20421;-65
2022/04/08 13:32:53;;;;;;;9.35;1.55;;;10.00;99.90;;;;;;5002479;28;20026;-64
2022/04/08 13:35:18;;;;;;;6.20;1.42;;;10.10;99.90;;;;;;4991053;28;20624;-64
2022/04/08 13:37:44;;;;;;;3.22;1.27;;;10.10;99.90;;;;;;4994557;28;20080;-64
2022/04/08 13:40:10;;;;;;;4.88;1.58;;;10.00;99.90;;;;;;4996394;28;20601;-64
2022/04/08 13:42:36;;;;;;;5.68;1.45;;;10.20;99.90;;;;;;4995446;28;20030;-64
2022/04/08 13:45:02;;;;;;;7.15;1.40;;;10.10;99.90;;;;;;4988880;28;20505;-65
2022/04/08 13:47:28;;;;;;;7.15;1.50;;;10.20;99.90;;;;;;4986591;28;20128;-65
2022/04/08 13:49:53;;;;;;;11.00;2.00;;;10.30;99.90;;;;;;4986777;28;20160;-64